Terminal Aerodrome Forecast
Issued by NWS

Home | Current Version | Previous Version | Text Only | Print | Product List | Glossary Off
Versions: 1 2 3 4 5 6 7 8 9 10 11 12 13 14 15 16 17 18 19

000
FTUS43 KMPX 161100 RRA
TAFRNH
TAF
KRNH 161138Z 1612/1712 10017G24KT P6SM VCSH BKN035 OVC050
     FM161400 10016G24KT 3SM -SN OVC040
      TEMPO 1614/1616 1 1/2SM -SN OVC020
     FM161600 11014G22KT 6SM BR VCSH OVC030
     FM161900 08014G20KT 3SM -RA BR OVC015
     FM162300 06012G18KT 4SM -RASN BR OVC010
     FM170600 35012KT 4SM -RASN OVC010=

USA.gov is the U.S. government's official web portal to all federal, state and local government web resources and services.